createdAt,value
2023-03-01T05:15:17.020Z,0.00
2023-03-01T05:16:17.086Z,0.00
2023-03-01T05:17:16.993Z,0.00
2023-03-01T05:18:16.971Z,0.00
2023-03-01T05:19:17.130Z,0.00
2023-03-01T05:20:16.952Z,0.00
2023-03-01T05:21:17.390Z,0.00
2023-03-01T05:22:16.936Z,0.00
2023-03-01T05:23:16.918Z,0.00
2023-03-01T05:24:16.899Z,0.00
2023-03-01T05:25:16.900Z,0.00
2023-03-01T05:26:27.902Z,0.00
2023-03-01T05:27:17.863Z,0.00
2023-03-01T05:28:16.853Z,0.00
2023-03-01T05:29:16.837Z,0.00
2023-03-01T05:30:16.823Z,0.00
2023-03-01T05:31:16.889Z,0.00
2023-03-01T05:32:16.994Z,0.00
2023-03-01T05:33:16.811Z,0.00
2023-03-01T05:34:16.790Z,0.00
2023-03-01T05:35:16.767Z,0.00
2023-03-01T05:36:16.765Z,0.00
2023-03-01T05:37:16.747Z,0.00
2023-03-01T05:38:16.726Z,0.00
2023-03-01T05:39:16.717Z,0.00
2023-03-01T05:40:16.728Z,0.00
2023-03-01T05:41:16.714Z,0.00
2023-03-01T05:42:16.682Z,0.00
2023-03-01T05:43:16.680Z,0.00
2023-03-01T05:44:16.652Z,0.00
2023-03-01T05:45:16.637Z,4.00
2023-03-01T05:46:16.706Z,0.00
2023-03-01T05:47:16.618Z,0.00
2023-03-01T05:48:16.596Z,4.00
2023-03-01T05:49:16.600Z,4.00
2023-03-01T05:50:16.574Z,0.00
2023-03-01T05:51:16.571Z,4.00
2023-03-01T05:52:16.562Z,8.00
2023-03-01T05:53:16.552Z,8.00
2023-03-01T05:54:16.525Z,4.00
2023-03-01T05:55:16.550Z,8.00
2023-03-01T05:56:16.501Z,8.00
2023-03-01T05:57:16.509Z,12.00
2023-03-01T05:58:16.484Z,12.00
2023-03-01T05:59:16.472Z,16.00
2023-03-01T06:00:16.441Z,20.00
2023-03-01T06:01:16.443Z,24.00
2023-03-01T06:02:16.431Z,24.00
2023-03-01T06:03:16.422Z,32.00
2023-03-01T06:04:16.455Z,36.00
2023-03-01T06:05:16.439Z,40.00
2023-03-01T06:06:16.368Z,48.00
2023-03-01T06:07:16.370Z,56.00
2023-03-01T06:08:16.356Z,64.00
2023-03-01T06:09:16.342Z,76.00
2023-03-01T06:10:16.329Z,84.00
2023-03-01T06:11:16.324Z,96.00
2023-03-01T06:12:16.308Z,108.00
2023-03-01T06:13:16.309Z,120.00
2023-03-01T06:14:16.269Z,132.00
2023-03-01T06:15:16.269Z,148.00
2023-03-01T06:16:16.352Z,164.00
2023-03-01T06:17:16.259Z,180.00
2023-03-01T06:18:16.218Z,200.00
2023-03-01T06:19:16.226Z,220.00
2023-03-01T06:20:16.201Z,240.00
2023-03-01T06:21:16.196Z,260.00
2023-03-01T06:22:16.183Z,280.00
2023-03-01T06:23:16.184Z,304.00
2023-03-01T06:24:16.155Z,328.00
2023-03-01T06:25:16.136Z,356.00
2023-03-01T06:26:16.134Z,376.00
2023-03-01T06:27:16.129Z,404.00
2023-03-01T06:28:16.098Z,432.00
2023-03-01T06:29:16.107Z,460.00
2023-03-01T06:30:16.067Z,488.00
2023-03-01T06:31:16.116Z,512.00
2023-03-01T06:32:16.086Z,544.00
2023-03-01T06:33:16.047Z,572.00
2023-03-01T06:34:16.024Z,600.00
2023-03-01T06:35:16.015Z,632.00
2023-03-01T06:36:16.003Z,660.00
2023-03-01T06:37:15.995Z,692.00
2023-03-01T06:38:15.975Z,720.00
2023-03-01T06:39:15.954Z,752.00
2023-03-01T06:40:15.981Z,780.00
2023-03-01T06:41:15.935Z,812.00
2023-03-01T06:42:15.923Z,848.00
2023-03-01T06:43:15.923Z,876.00
2023-03-01T06:44:15.902Z,912.00
2023-03-01T06:45:15.888Z,940.00
2023-03-01T06:46:15.978Z,980.00
2023-03-01T06:47:15.883Z,1012.00
2023-03-01T06:48:15.875Z,1044.00
2023-03-01T06:49:15.834Z,1076.00
2023-03-01T06:50:15.864Z,1112.00
2023-03-01T06:51:15.814Z,1148.00
2023-03-01T06:52:15.811Z,1176.00
2023-03-01T06:53:15.802Z,1208.00
2023-03-01T06:54:15.774Z,1240.00
2023-03-01T06:55:15.769Z,1272.00
2023-03-01T06:56:15.741Z,1308.00
2023-03-01T06:57:15.725Z,1340.00
2023-03-01T06:58:15.725Z,1372.00
2023-03-01T06:59:15.705Z,1404.00
2023-03-01T07:00:15.685Z,1432.00
2023-03-01T07:01:15.730Z,1464.00
2023-03-01T07:02:15.662Z,1500.00
2023-03-01T07:03:15.672Z,1532.00
2023-03-01T07:04:15.633Z,1568.00
2023-03-01T07:05:15.636Z,1596.00
2023-03-01T07:06:15.614Z,1632.00
2023-03-01T07:07:15.603Z,1660.00
2023-03-01T07:08:15.612Z,1688.00
2023-03-01T07:09:15.569Z,1728.00
2023-03-01T07:10:15.567Z,1756.00
2023-03-01T07:11:15.550Z,1784.00
2023-03-01T07:12:15.539Z,1816.00
2023-03-01T07:13:15.543Z,1852.00
2023-03-01T07:14:15.498Z,1876.00
2023-03-01T07:15:15.500Z,1912.00
2023-03-01T07:16:15.553Z,1940.00
2023-03-01T07:17:15.468Z,1968.00
2023-03-01T07:18:15.459Z,2000.00
2023-03-01T07:19:15.448Z,2028.00
2023-03-01T07:20:15.435Z,2060.00
2023-03-01T07:21:15.430Z,2088.00
2023-03-01T07:22:15.431Z,2112.00
2023-03-01T07:23:15.419Z,2140.00
2023-03-01T07:24:15.387Z,2160.00
2023-03-01T07:25:15.377Z,2180.00
2023-03-01T07:26:15.370Z,2204.00
2023-03-01T07:27:15.346Z,2232.00
2023-03-01T07:28:15.346Z,2248.00
2023-03-01T07:29:15.330Z,2268.00
2023-03-01T07:30:15.319Z,2292.00
2023-03-01T07:31:15.297Z,2316.00
2023-03-01T07:32:15.359Z,2332.00
2023-03-01T07:33:15.354Z,2360.00
2023-03-01T07:34:15.264Z,2372.00
2023-03-01T07:35:15.242Z,2392.00
2023-03-01T07:36:15.264Z,2412.00
2023-03-01T07:37:15.212Z,2428.00
2023-03-01T07:38:15.224Z,2444.00
2023-03-01T07:39:15.191Z,2448.00
2023-03-01T07:40:15.197Z,2468.00
2023-03-01T07:41:15.163Z,2484.00
2023-03-01T07:42:15.166Z,2496.00
2023-03-01T07:43:15.163Z,2508.00
2023-03-01T07:44:15.134Z,2528.00
2023-03-01T07:45:15.147Z,2536.00
2023-03-01T07:46:15.111Z,2544.00
2023-03-01T07:47:15.092Z,2560.00
2023-03-01T07:48:15.092Z,2572.00
2023-03-01T07:49:15.080Z,2588.00
2023-03-01T07:50:15.050Z,2600.00
2023-03-01T07:51:15.043Z,2616.00
2023-03-01T07:52:15.070Z,2636.00
2023-03-01T07:53:15.036Z,2644.00
2023-03-01T07:54:15.005Z,2668.00
2023-03-01T07:55:14.979Z,2672.00
2023-03-01T07:56:14.976Z,2688.00
2023-03-01T07:57:14.962Z,2708.00
2023-03-01T07:58:14.958Z,2724.00
2023-03-01T07:59:14.928Z,2752.00
2023-03-01T08:00:14.954Z,2764.00
2023-03-01T08:01:14.907Z,2784.00
2023-03-01T08:02:15.011Z,2796.00
2023-03-01T08:04:14.875Z,2848.00
2023-03-01T08:05:14.862Z,2860.00
2023-03-01T08:06:14.858Z,2876.00
2023-03-01T08:07:14.834Z,2888.00
2023-03-01T08:08:14.826Z,2908.00
2023-03-01T08:09:14.812Z,2936.00
2023-03-01T08:10:14.799Z,2968.00
2023-03-01T08:11:14.794Z,2976.00
2023-03-01T08:12:14.784Z,2992.00
2023-03-01T08:13:14.818Z,3012.00
2023-03-01T08:14:14.753Z,3028.00
2023-03-01T08:15:14.741Z,3040.00
2023-03-01T08:16:14.773Z,3068.00
2023-03-01T08:17:14.708Z,3076.00
2023-03-01T08:18:14.696Z,3100.00
2023-03-01T08:19:14.707Z,3116.00
2023-03-01T08:20:14.677Z,3116.00
2023-03-01T08:21:14.668Z,3148.00
2023-03-01T08:22:14.668Z,3164.00
2023-03-01T08:23:14.637Z,3192.00
2023-03-01T08:24:14.630Z,3204.00
2023-03-01T08:25:14.606Z,3220.00
2023-03-01T08:26:14.590Z,3244.00
2023-03-01T08:27:14.576Z,3260.00
2023-03-01T08:28:14.557Z,3280.00
2023-03-01T08:29:14.567Z,3320.00
2023-03-01T08:30:14.534Z,3352.00
2023-03-01T08:31:14.535Z,3380.00
2023-03-01T08:32:14.665Z,3412.00
2023-03-01T08:33:14.520Z,3440.00
2023-03-01T08:34:14.512Z,3472.00
2023-03-01T08:35:14.484Z,3500.00
2023-03-01T08:36:14.454Z,3524.00
2023-03-01T08:37:14.446Z,3556.00
2023-03-01T08:38:14.424Z,3588.00
2023-03-01T08:39:14.433Z,3616.00
2023-03-01T08:40:14.415Z,3652.00
2023-03-01T08:41:14.400Z,3680.00
2023-03-01T08:42:14.386Z,3716.00
2023-03-01T08:43:14.382Z,3756.00
2023-03-01T08:44:14.401Z,3796.00
2023-03-01T08:45:14.343Z,3828.00
2023-03-01T08:46:14.388Z,3852.00
2023-03-01T08:47:14.323Z,3876.00
2023-03-01T08:48:14.302Z,3900.00
2023-03-01T08:49:14.324Z,3932.00
2023-03-01T08:50:14.335Z,3952.00
2023-03-01T08:51:14.276Z,3956.00
2023-03-01T08:52:14.252Z,3980.00
2023-03-01T08:53:14.252Z,4000.00
2023-03-01T08:54:14.288Z,4024.00
2023-03-01T08:55:14.221Z,4056.00
2023-03-01T08:56:14.201Z,4084.00
2023-03-01T08:57:14.191Z,4120.00
2023-03-01T08:58:14.181Z,4152.00
2023-03-01T08:59:14.191Z,4168.00
2023-03-01T09:00:14.152Z,4192.00
2023-03-01T09:01:14.148Z,4248.00
2023-03-01T09:02:14.188Z,4268.00
2023-03-01T09:03:14.121Z,4292.00
2023-03-01T09:04:15.160Z,4328.00
2023-03-01T09:05:14.096Z,4364.00
2023-03-01T09:06:14.077Z,4392.00
2023-03-01T09:07:14.056Z,4424.00
2023-03-01T09:08:14.106Z,4472.00
2023-03-01T09:09:14.041Z,4504.00
2023-03-01T09:10:14.020Z,4552.00
2023-03-01T09:11:14.008Z,4592.00
2023-03-01T09:12:14.138Z,4636.00
2023-03-01T09:13:13.994Z,4696.00
2023-03-01T09:14:14.017Z,4760.00
2023-03-01T09:15:13.970Z,4808.00
2023-03-01T09:16:13.974Z,4852.00
2023-03-01T09:17:13.928Z,4900.00
2023-03-01T09:18:13.937Z,4952.00
2023-03-01T09:19:13.929Z,5008.00
2023-03-01T09:20:13.901Z,5052.00
2023-03-01T09:21:13.881Z,5096.00
2023-03-01T09:22:14.055Z,5144.00
2023-03-01T09:23:13.860Z,5204.00
2023-03-01T09:24:13.840Z,5256.00
2023-03-01T09:25:13.838Z,5316.00
2023-03-01T09:26:13.821Z,5392.00
2023-03-01T09:27:13.893Z,5456.00
2023-03-01T09:28:27.582Z,5520.00
2023-03-01T09:29:14.777Z,5624.00
2023-03-01T09:30:13.769Z,5728.00
2023-03-01T09:31:13.848Z,5784.00
2023-03-01T09:32:13.764Z,5896.00
2023-03-01T09:33:13.731Z,5988.00
2023-03-01T09:34:13.709Z,6052.00
2023-03-01T09:35:13.714Z,6120.00
2023-03-01T09:36:13.688Z,6184.00
2023-03-01T09:37:13.671Z,6224.00
2023-03-01T09:38:13.657Z,6248.00
2023-03-01T09:39:13.636Z,6268.00
2023-03-01T09:40:13.652Z,6292.00
2023-03-01T09:41:13.615Z,6368.00
2023-03-01T09:42:13.657Z,6556.00
2023-03-01T09:43:13.595Z,6764.00
2023-03-01T09:44:13.583Z,6988.00
2023-03-01T09:45:13.576Z,7180.00
2023-03-01T09:46:13.585Z,7332.00
2023-03-01T09:47:13.538Z,7408.00
2023-03-01T09:48:13.525Z,7560.00
2023-03-01T09:49:13.506Z,7652.00
2023-03-01T09:50:13.516Z,7888.00
2023-03-01T09:51:13.487Z,8072.00
2023-03-01T09:52:13.478Z,8332.00
2023-03-01T09:53:13.456Z,8564.00
2023-03-01T09:54:13.448Z,8828.00
2023-03-01T09:55:13.453Z,10040.00
2023-03-01T09:56:13.427Z,20640.00
2023-03-01T09:57:13.405Z,32960.00
2023-03-01T09:58:13.395Z,36160.00
2023-03-01T09:59:13.379Z,36320.00
2023-03-01T10:00:13.374Z,37920.00
2023-03-01T10:01:13.354Z,39712.00
2023-03-01T10:02:13.345Z,40800.00
2023-03-01T10:03:13.334Z,38912.00
2023-03-01T10:04:13.430Z,38560.00
2023-03-01T10:05:13.451Z,39168.00
2023-03-01T10:06:23.904Z,39328.00
2023-03-01T10:07:14.278Z,39168.00
2023-03-01T10:08:13.265Z,39328.00
2023-03-01T10:09:13.247Z,39392.00
2023-03-01T10:10:13.248Z,39968.00
2023-03-01T10:11:13.215Z,40864.00
2023-03-01T10:12:13.226Z,42016.00
2023-03-01T10:13:13.197Z,42176.00
2023-03-01T10:14:13.186Z,42304.00
2023-03-01T10:15:13.175Z,44832.00
2023-03-01T10:16:13.228Z,45440.00
2023-03-01T10:17:13.144Z,46976.00
2023-03-01T10:18:13.147Z,47456.00
2023-03-01T10:19:13.116Z,47008.00
2023-03-01T10:20:13.127Z,47072.00
2023-03-01T10:21:13.096Z,47456.00
2023-03-01T10:22:13.095Z,47264.00
2023-03-01T10:23:13.080Z,46944.00
2023-03-01T10:24:13.051Z,47264.00
2023-03-01T10:25:13.053Z,48448.00
2023-03-01T10:26:13.043Z,48448.00
2023-03-01T10:27:13.013Z,46944.00
2023-03-01T10:28:13.003Z,48480.00
2023-03-01T10:29:12.991Z,49632.00
2023-03-01T10:30:12.979Z,49440.00
2023-03-01T10:31:12.996Z,49216.00
2023-03-01T10:32:12.985Z,49984.00
2023-03-01T10:33:12.935Z,48864.00
2023-03-01T10:34:12.916Z,48288.00
2023-03-01T10:35:12.903Z,46880.00
2023-03-01T10:36:12.911Z,48736.00
2023-03-01T10:37:12.873Z,51168.00
2023-03-01T10:38:12.863Z,49984.00
2023-03-01T10:39:12.858Z,47968.00
2023-03-01T10:40:12.838Z,47872.00
2023-03-01T10:41:12.832Z,49728.00
2023-03-01T10:42:12.812Z,49856.00
2023-03-01T10:43:12.810Z,49056.00
2023-03-01T10:44:12.784Z,49408.00
2023-03-01T10:45:12.787Z,49504.00
2023-03-01T10:46:12.849Z,51040.00
2023-03-01T10:47:12.742Z,52832.00
2023-03-01T10:48:12.731Z,53856.00
2023-03-01T10:49:12.714Z,53952.00
2023-03-01T10:50:12.714Z,54656.00
2023-03-01T10:51:12.702Z,55168.00
2023-03-01T10:52:12.682Z,55200.00
2023-03-01T10:53:12.664Z,54976.00
2023-03-01T10:54:12.653Z,56128.00
2023-03-01T10:55:12.643Z,57248.00
2023-03-01T10:56:12.632Z,58176.00
2023-03-01T10:57:12.610Z,58624.00
2023-03-01T10:58:12.602Z,60320.00
2023-03-01T10:59:12.584Z,62048.00
2023-03-01T11:00:12.612Z,61920.00
2023-03-01T11:01:12.608Z,61632.00
2023-03-01T11:02:23.631Z,60064.00
2023-03-01T11:03:13.523Z,59904.00
2023-03-01T11:04:12.538Z,60672.00
2023-03-01T11:05:12.511Z,63456.00
2023-03-01T11:06:12.517Z,65312.00
2023-03-01T11:07:12.480Z,65728.00
2023-03-01T11:08:12.478Z,64992.00
2023-03-01T11:09:12.459Z,63424.00
2023-03-01T11:10:12.444Z,61984.00
2023-03-01T11:11:12.432Z,61408.00
2023-03-01T11:12:12.420Z,61824.00
2023-03-01T11:13:12.412Z,62944.00
2023-03-01T11:14:25.484Z,64640.00
2023-03-01T11:15:13.374Z,66624.00
2023-03-01T11:16:12.440Z,66048.00
2023-03-01T11:17:12.356Z,67520.00
2023-03-01T11:18:14.235Z,67392.00
2023-03-01T11:19:12.321Z,67648.00
2023-03-01T11:20:12.339Z,68096.00
2023-03-01T11:21:12.320Z,69184.00
2023-03-01T11:22:12.300Z,70048.00
2023-03-01T11:23:12.292Z,68640.00
2023-03-01T11:24:12.261Z,66208.00
2023-03-01T11:25:12.256Z,66400.00
2023-03-01T11:26:13.150Z,67872.00
2023-03-01T11:27:12.226Z,69536.00
2023-03-01T11:28:12.206Z,67456.00
2023-03-01T11:29:12.184Z,64224.00
2023-03-01T11:30:12.174Z,64192.00
2023-03-01T11:31:12.177Z,67424.00
2023-03-01T11:32:12.234Z,70272.00
2023-03-01T11:33:12.230Z,71872.00
2023-03-01T11:34:12.119Z,71456.00
2023-03-01T11:35:12.116Z,71552.00
2023-03-01T11:36:12.139Z,69536.00
2023-03-01T11:37:12.092Z,68448.00
2023-03-01T11:38:12.060Z,68928.00
2023-03-01T11:39:12.086Z,71232.00
2023-03-01T11:40:12.054Z,72736.00
2023-03-01T11:41:12.048Z,73824.00
2023-03-01T11:42:18.411Z,73504.00
2023-03-01T11:43:13.038Z,71808.00
2023-03-01T11:44:11.992Z,71584.00
2023-03-01T11:45:11.978Z,71392.00
2023-03-01T11:46:12.964Z,70912.00
2023-03-01T11:47:12.031Z,73120.00
2023-03-01T11:48:11.938Z,74624.00
2023-03-01T11:49:11.917Z,74912.00
2023-03-01T11:50:11.908Z,75360.00
2023-03-01T11:51:11.889Z,74080.00
2023-03-01T11:52:11.887Z,74368.00
2023-03-01T11:53:11.922Z,73504.00
2023-03-01T11:54:11.854Z,72320.00
2023-03-01T11:55:11.828Z,73376.00
2023-03-01T11:56:11.912Z,73312.00
2023-03-01T11:57:11.819Z,73792.00
2023-03-01T11:58:11.822Z,73024.00
2023-03-01T11:59:11.789Z,71712.00
2023-03-01T12:00:11.770Z,71648.00
2023-03-01T12:01:11.758Z,73952.00
2023-03-01T12:02:11.791Z,77568.00
2023-03-01T12:03:11.731Z,77664.00
2023-03-01T12:04:11.728Z,80032.00
2023-03-01T12:05:11.704Z,79264.00
2023-03-01T12:06:11.691Z,80160.00
2023-03-01T12:07:11.682Z,80000.00
2023-03-01T12:08:11.663Z,80128.00
2023-03-01T12:09:11.650Z,80512.00
2023-03-01T12:10:11.664Z,82144.00
2023-03-01T12:11:11.624Z,82240.00
2023-03-01T12:12:11.626Z,82400.00
2023-03-01T12:13:11.591Z,84576.00
2023-03-01T12:14:11.590Z,81536.00
2023-03-01T12:15:11.573Z,79168.00
2023-03-01T12:16:11.574Z,80480.00
2023-03-01T12:17:11.580Z,79168.00
2023-03-01T12:18:11.533Z,81472.00
2023-03-01T12:19:11.512Z,83424.00
2023-03-01T12:20:11.511Z,83648.00
2023-03-01T12:21:11.516Z,84320.00
2023-03-01T12:22:11.549Z,83552.00
2023-03-01T12:23:19.976Z,84224.00
2023-03-01T12:24:12.467Z,84480.00
2023-03-01T12:25:11.443Z,83040.00
2023-03-01T12:26:13.287Z,80896.00
2023-03-01T12:27:11.422Z,81376.00
2023-03-01T12:28:11.402Z,83968.00
2023-03-01T12:29:11.382Z,84640.00
2023-03-01T12:30:11.373Z,88288.00
2023-03-01T12:31:11.430Z,88416.00
2023-03-01T12:32:11.458Z,87264.00
2023-03-01T12:33:11.335Z,86432.00
2023-03-01T12:34:11.333Z,85920.00
2023-03-01T12:35:11.320Z,85440.00
2023-03-01T12:36:11.335Z,85312.00
2023-03-01T12:37:11.307Z,86496.00
2023-03-01T12:38:11.284Z,86112.00
2023-03-01T12:39:11.266Z,87328.00
2023-03-01T12:40:11.256Z,86944.00
2023-03-01T12:41:11.240Z,86496.00
2023-03-01T12:42:11.242Z,86944.00
2023-03-01T12:43:11.211Z,85152.00
2023-03-01T12:44:11.198Z,84608.00
2023-03-01T12:45:11.186Z,86496.00
2023-03-01T12:46:11.193Z,87040.00
2023-03-01T12:47:11.168Z,87168.00
2023-03-01T12:48:11.280Z,85664.00
2023-03-01T12:49:11.158Z,85632.00
2023-03-01T12:50:11.125Z,84928.00
2023-03-01T12:51:11.098Z,83616.00
2023-03-01T12:52:11.114Z,84736.00
2023-03-01T12:53:11.078Z,82080.00
2023-03-01T12:54:11.068Z,85472.00
2023-03-01T12:55:11.054Z,86816.00
2023-03-01T12:56:11.038Z,84800.00
2023-03-01T12:57:11.039Z,84928.00
2023-03-01T12:58:11.031Z,87456.00
2023-03-01T12:59:10.998Z,84096.00
2023-03-01T13:00:10.990Z,81120.00
2023-03-01T13:01:11.025Z,82880.00
2023-03-01T13:02:10.987Z,83072.00
2023-03-01T13:03:10.948Z,81664.00
2023-03-01T13:04:10.956Z,80544.00
2023-03-01T13:05:10.918Z,85248.00
2023-03-01T13:06:10.915Z,87008.00
2023-03-01T13:07:10.905Z,86400.00
2023-03-01T13:08:10.885Z,87840.00
2023-03-01T13:09:10.867Z,85696.00
2023-03-01T13:10:10.864Z,87808.00
2023-03-01T13:11:10.846Z,86752.00
2023-03-01T13:12:19.956Z,87904.00
2023-03-01T13:13:11.816Z,90080.00
2023-03-01T13:14:10.808Z,89984.00
2023-03-01T13:15:10.799Z,90496.00
2023-03-01T13:16:10.828Z,91232.00
2023-03-01T13:17:10.756Z,92544.00
2023-03-01T13:18:10.773Z,97184.00
2023-03-01T13:19:10.765Z,105184.00
2023-03-01T13:20:10.779Z,104544.00
2023-03-01T13:21:10.716Z,105184.00
2023-03-01T13:22:10.698Z,95936.00
2023-03-01T13:23:10.701Z,100672.00
2023-03-01T13:24:10.681Z,92192.00
2023-03-01T13:25:10.657Z,66784.00
2023-03-01T13:26:10.659Z,58208.00
2023-03-01T13:27:10.638Z,48736.00
2023-03-01T13:28:10.636Z,36448.00
2023-03-01T13:29:10.616Z,23328.00
2023-03-01T13:30:10.647Z,20640.00
2023-03-01T13:31:10.590Z,20352.00
2023-03-01T13:32:10.679Z,19904.00
2023-03-01T13:33:10.608Z,19840.00
2023-03-01T13:34:10.547Z,19648.00
2023-03-01T13:35:10.538Z,19392.00
2023-03-01T13:36:10.559Z,19264.00
2023-03-01T13:37:10.517Z,19328.00
2023-03-01T13:38:10.520Z,19200.00
2023-03-01T13:39:10.503Z,18848.00
2023-03-01T13:40:10.525Z,17120.00
2023-03-01T13:41:10.464Z,13208.00
2023-03-01T13:42:10.453Z,8500.00
2023-03-01T13:43:10.441Z,6220.00
2023-03-01T13:44:10.431Z,5964.00
2023-03-01T13:45:10.417Z,5900.00
2023-03-01T13:46:10.448Z,5904.00
2023-03-01T13:47:10.482Z,5900.00
2023-03-01T13:48:10.409Z,5904.00
2023-03-01T13:49:10.364Z,5908.00
2023-03-01T13:50:10.355Z,5892.00
2023-03-01T13:51:10.336Z,5892.00
2023-03-01T13:52:10.326Z,5876.00
2023-03-01T13:53:10.316Z,5852.00
2023-03-01T13:54:10.305Z,5812.00
2023-03-01T13:55:10.287Z,5796.00
2023-03-01T13:56:10.267Z,5784.00
2023-03-01T13:57:10.256Z,5744.00
2023-03-01T13:58:10.257Z,5728.00
2023-03-01T13:59:10.226Z,5724.00
2023-03-01T14:00:10.219Z,5704.00
2023-03-01T14:01:10.234Z,5684.00
2023-03-01T14:02:10.194Z,5652.00
2023-03-01T14:03:10.322Z,5628.00
2023-03-01T14:04:10.205Z,5604.00
2023-03-01T14:05:10.146Z,5592.00
2023-03-01T14:06:15.864Z,5576.00
2023-03-01T14:07:11.118Z,5552.00
2023-03-01T14:08:10.126Z,5580.00
2023-03-01T14:09:10.106Z,5556.00
2023-03-01T14:10:10.085Z,5540.00
2023-03-01T14:11:10.073Z,5504.00
2023-03-01T14:12:10.061Z,5476.00
2023-03-01T14:13:16.028Z,5444.00
2023-03-01T14:14:11.024Z,5384.00
2023-03-01T14:15:10.037Z,5352.00
2023-03-01T14:16:10.045Z,5336.00
2023-03-01T14:17:09.992Z,5332.00
2023-03-01T14:18:10.000Z,5308.00
2023-03-01T14:19:10.207Z,5272.00
2023-03-01T14:20:10.008Z,5232.00
2023-03-01T14:21:09.928Z,5172.00
2023-03-01T14:22:09.907Z,5128.00
2023-03-01T14:23:09.923Z,5124.00
2023-03-01T14:24:09.928Z,5124.00
2023-03-01T14:25:09.894Z,5100.00
2023-03-01T14:26:09.859Z,5064.00
2023-03-01T14:27:09.888Z,5064.00
2023-03-01T14:28:09.849Z,5056.00
2023-03-01T14:29:09.836Z,5032.00
2023-03-01T14:30:09.808Z,5016.00
2023-03-01T14:31:09.835Z,5004.00
2023-03-01T14:32:09.811Z,4976.00
2023-03-01T14:33:09.775Z,4964.00
2023-03-01T14:34:09.766Z,4948.00
2023-03-01T14:35:09.752Z,4928.00
2023-03-01T14:36:09.727Z,4924.00
2023-03-01T14:37:09.716Z,4932.00
2023-03-01T14:38:09.696Z,4936.00
2023-03-01T14:39:09.705Z,4924.00
2023-03-01T14:40:09.680Z,4916.00
2023-03-01T14:41:09.665Z,4904.00
2023-03-01T14:42:15.303Z,4872.00
2023-03-01T14:43:10.644Z,4828.00
2023-03-01T14:44:09.634Z,4856.00
2023-03-01T14:45:09.606Z,4840.00
2023-03-01T14:46:09.602Z,4820.00
2023-03-01T14:47:09.586Z,4796.00
2023-03-01T14:48:09.576Z,4780.00
2023-03-01T14:49:09.574Z,4772.00
2023-03-01T14:50:09.546Z,4752.00
2023-03-01T14:51:09.537Z,4720.00
2023-03-01T14:52:09.519Z,4708.00
2023-03-01T14:53:09.519Z,4712.00
2023-03-01T14:54:09.506Z,4724.00
2023-03-01T14:55:09.479Z,4716.00
2023-03-01T14:56:09.469Z,4696.00
2023-03-01T14:57:09.460Z,4684.00
2023-03-01T14:58:09.449Z,4672.00
2023-03-01T14:59:09.452Z,4652.00
2023-03-01T15:00:09.438Z,4616.00
2023-03-01T15:01:09.421Z,4576.00
2023-03-01T15:02:09.404Z,4536.00
2023-03-01T15:03:09.379Z,4496.00
2023-03-01T15:04:09.397Z,4456.00
2023-03-01T15:05:09.415Z,4460.00
2023-03-01T15:06:09.341Z,4432.00
2023-03-01T15:07:09.329Z,4412.00
2023-03-01T15:08:09.308Z,4404.00
2023-03-01T15:09:09.321Z,4384.00
2023-03-01T15:10:09.292Z,4356.00
2023-03-01T15:11:09.434Z,4336.00
2023-03-01T15:12:09.269Z,4328.00
2023-03-01T15:13:09.250Z,4288.00
2023-03-01T15:14:09.239Z,4220.00
2023-03-01T15:15:09.239Z,4204.00
2023-03-01T15:16:09.381Z,4192.00
2023-03-01T15:17:09.197Z,4184.00
2023-03-01T15:18:09.186Z,4180.00
2023-03-01T15:19:09.210Z,4156.00
2023-03-01T15:20:09.150Z,4140.00
2023-03-01T15:21:09.143Z,4088.00
2023-03-01T15:22:09.126Z,4084.00
2023-03-01T15:23:09.113Z,4056.00
2023-03-01T15:24:09.105Z,4028.00
2023-03-01T15:25:09.082Z,4020.00
2023-03-01T15:26:09.131Z,4004.00
2023-03-01T15:27:09.062Z,3936.00
2023-03-01T15:28:09.050Z,3928.00
2023-03-01T15:29:11.434Z,3940.00
2023-03-01T15:30:09.026Z,3912.00
2023-03-01T15:31:09.030Z,3884.00
2023-03-01T15:32:09.002Z,3864.00
2023-03-01T15:33:08.987Z,3784.00
2023-03-01T15:34:08.979Z,3832.00
2023-03-01T15:35:08.947Z,3804.00
2023-03-01T15:36:08.934Z,3776.00
2023-03-01T15:37:08.947Z,3752.00
2023-03-01T15:38:10.322Z,3728.00
2023-03-01T15:39:08.904Z,3704.00
2023-03-01T15:40:08.885Z,3680.00
2023-03-01T15:41:08.885Z,3656.00
2023-03-01T15:42:08.845Z,3636.00
2023-03-01T15:43:08.845Z,3608.00
2023-03-01T15:44:08.837Z,3580.00
2023-03-01T15:45:08.816Z,3560.00
2023-03-01T15:46:08.913Z,3536.00
2023-03-01T15:47:08.824Z,3504.00
2023-03-01T15:48:08.773Z,3480.00
2023-03-01T15:49:08.796Z,3452.00
2023-03-01T15:50:08.778Z,3432.00
2023-03-01T15:51:08.806Z,3392.00
2023-03-01T15:52:08.751Z,3384.00
2023-03-01T15:53:08.715Z,3344.00
2023-03-01T15:54:08.712Z,3328.00
2023-03-01T15:55:08.684Z,3304.00
2023-03-01T15:56:08.698Z,3228.00
2023-03-01T15:57:08.665Z,3236.00
2023-03-01T15:58:08.658Z,3208.00
2023-03-01T15:59:08.645Z,3180.00
2023-03-01T16:00:08.647Z,3148.00
2023-03-01T16:01:08.619Z,3120.00
2023-03-01T16:02:08.599Z,3092.00
2023-03-01T16:03:08.638Z,3068.00
2023-03-01T16:04:08.694Z,3032.00
2023-03-01T16:05:08.565Z,3000.00
2023-03-01T16:06:08.550Z,2960.00
2023-03-01T16:07:08.532Z,2924.00
2023-03-01T16:08:08.517Z,2896.00
2023-03-01T16:09:08.506Z,2872.00
2023-03-01T16:10:08.497Z,2848.00
2023-03-01T16:11:08.476Z,2820.00
2023-03-01T16:12:08.468Z,2772.00
2023-03-01T16:13:08.446Z,2792.00
2023-03-01T16:14:08.511Z,2796.00
2023-03-01T16:15:08.472Z,2828.00
2023-03-01T16:16:08.449Z,3740.00
2023-03-01T16:17:08.396Z,3652.00
2023-03-01T16:18:08.398Z,2988.00
2023-03-01T16:19:08.374Z,2992.00
2023-03-01T16:20:09.902Z,3060.00
2023-03-01T16:21:08.346Z,3160.00
2023-03-01T16:22:08.338Z,3240.00
2023-03-01T16:23:08.324Z,3236.00
2023-03-01T16:24:08.306Z,3208.00
2023-03-01T16:25:08.325Z,3144.00
2023-03-01T16:26:08.284Z,3064.00
2023-03-01T16:27:08.276Z,2984.00
2023-03-01T16:28:08.255Z,2904.00
2023-03-01T16:29:08.234Z,2844.00
2023-03-01T16:30:08.254Z,2744.00
2023-03-01T16:31:08.274Z,2668.00
2023-03-01T16:32:08.330Z,2572.00
2023-03-01T16:33:24.202Z,2476.00
2023-03-01T16:34:09.253Z,2396.00
2023-03-01T16:35:08.169Z,2300.00
2023-03-01T16:36:08.233Z,2196.00
2023-03-01T16:37:08.138Z,2024.00
2023-03-01T16:38:08.124Z,1748.00
2023-03-01T16:39:08.104Z,1528.00
2023-03-01T16:40:08.104Z,1440.00
2023-03-01T16:41:08.088Z,1380.00
2023-03-01T16:42:08.073Z,1308.00
2023-03-01T16:43:08.059Z,1280.00
2023-03-01T16:44:08.046Z,1232.00
2023-03-01T16:45:18.473Z,1184.00
2023-03-01T16:46:09.113Z,1136.00
2023-03-01T16:47:08.005Z,1084.00
2023-03-01T16:48:08.006Z,1044.00
2023-03-01T16:49:07.976Z,1004.00
2023-03-01T16:50:07.974Z,960.00
2023-03-01T16:51:07.953Z,916.00
2023-03-01T16:52:07.956Z,872.00
2023-03-01T16:53:07.936Z,820.00
2023-03-01T16:54:07.925Z,780.00
2023-03-01T16:55:07.910Z,744.00
2023-03-01T16:56:07.891Z,704.00
2023-03-01T16:57:07.871Z,664.00
2023-03-01T16:58:07.866Z,624.00
2023-03-01T16:59:07.845Z,584.00
2023-03-01T17:00:07.855Z,552.00
2023-03-01T17:01:07.904Z,512.00
2023-03-01T17:02:07.816Z,480.00
2023-03-01T17:03:07.858Z,448.00
2023-03-01T17:04:07.799Z,412.00
2023-03-01T17:05:07.781Z,384.00
2023-03-01T17:06:07.761Z,352.00
2023-03-01T17:07:07.729Z,324.00
2023-03-01T17:08:07.721Z,296.00
2023-03-01T17:09:07.710Z,272.00
2023-03-01T17:10:07.701Z,248.00
2023-03-01T17:11:07.700Z,224.00
2023-03-01T17:12:07.679Z,204.00
2023-03-01T17:13:07.659Z,184.00
2023-03-01T17:14:07.663Z,168.00
2023-03-01T17:15:07.680Z,144.00
2023-03-01T17:16:07.695Z,132.00
2023-03-01T17:17:07.622Z,120.00
2023-03-01T17:18:07.596Z,100.00
2023-03-01T17:19:07.590Z,92.00
2023-03-01T17:20:07.624Z,76.00
2023-03-01T17:21:07.591Z,72.00